Repto Valencia, Puerto Rico
Current Conditions -  °F | °C
As of 1:56 PM on Saturday 22 Nov 2014 (Local Time) from TJSJ Reporting Station
Light Rain Light Rain  
Wind Chill: 77°   Ceiling: 4000
Heat Index: 78°   Visibility: 10mi
Dew Point: 75°   Wind: 7mph
Humidity: 94%   Direction: 90°E
Pressure: 29.99"   Gusts: NA
Location:  18.1781°N, 66.1167°W
Report Text: TJSJ 221756Z 09006KT 10SM -RA FEW022 BKN040 BKN070 25/24 A2999 RMK AO2 PK WND 07027/1709 RAB05 SLP153 VIS LWR W P0000 60014 T02500239 10289 20239 56020 $
Loading
Personal Weather Stations






























Interactive Weather Map New forecast layout! Learn more

10-Day Weather Forecast

Advertisements
Track Severe Weather on mobile